Time;durP1;ratioP1;P1;durP2;ratioP2;P2;SDS_P1;SDS_P2;PMS_P1;PMS_P2;Temp;Humidity;BMP_temperature;BMP_pressure;BME280_temperature;BME280_humidity;BME280_pressure;Samples;Min_cycle;Max_cycle;Signal;HPM_P1;HPM_P2
2021/12/19 00:01:26;;;;;;;6.72;4.40;;;;;;;6.52;100.00;102552.84;6197775;22;20122;-84
2021/12/19 00:04:01;;;;;;;7.28;4.30;;;;;;;6.50;100.00;102547.59;6207920;22;20023;-84
2021/12/19 00:09:13;;;;;;;6.82;4.32;;;;;;;6.42;100.00;102536.03;6236812;22;20089;-84
2021/12/19 00:11:41;;;;;;;4.97;4.47;;;;;;;6.38;100.00;102548.03;6237133;22;20506;-84
2021/12/19 00:14:09;;;;;;;6.03;4.57;;;;;;;6.35;100.00;102544.41;6239904;22;20058;-84
2021/12/19 00:16:36;;;;;;;4.55;3.83;;;;;;;6.33;100.00;102541.75;6241060;22;20047;-84
2021/12/19 00:19:04;;;;;;;4.95;4.43;;;;;;;6.30;100.00;102539.03;6237623;22;20038;-84
2021/12/19 00:21:32;;;;;;;6.97;5.32;;;;;;;6.27;100.00;102531.09;6239679;22;20386;-84
2021/12/19 00:23:59;;;;;;;5.63;4.65;;;;;;;6.25;100.00;102524.97;6207023;22;20109;-84
2021/12/19 00:26:26;;;;;;;4.05;3.70;;;;;;;6.24;100.00;102523.19;6234095;22;20089;-83
2021/12/19 00:28:53;;;;;;;7.07;4.30;;;;;;;6.20;100.00;102522.19;6209560;22;20027;-84
2021/12/19 00:31:21;;;;;;;9.27;4.70;;;;;;;6.19;100.00;102522.13;6206279;22;20074;-84
2021/12/19 00:33:47;;;;;;;5.47;3.85;;;;;;;6.19;100.00;102525.63;6210137;22;20019;-84
2021/12/19 00:36:15;;;;;;;5.32;4.20;;;;;;;6.16;100.00;102520.28;6206141;22;20081;-84
2021/12/19 00:38:42;;;;;;;6.75;4.03;;;;;;;6.14;100.00;102529.75;6232515;22;20023;-84
2021/12/19 00:41:12;;;;;;;7.72;5.43;;;;;;;6.16;100.00;102530.69;6204608;22;20414;-85
2021/12/19 00:43:46;;;;;;;9.00;6.13;;;;;;;6.14;100.00;102519.34;6233301;22;20023;-84
2021/12/19 00:46:19;;;;;;;6.40;5.32;;;;;;;6.15;100.00;102521.09;6231925;22;20058;-84
2021/12/19 00:48:51;;;;;;;5.75;5.10;;;;;;;6.15;100.00;102512.44;6228894;22;20023;-84
2021/12/19 00:51:22;;;;;;;8.23;5.97;;;;;;;6.12;100.00;102508.88;6206332;22;20030;-85
2021/12/19 00:53:50;;;;;;;6.10;5.43;;;;;;;6.12;100.00;102503.66;6230428;22;20027;-84
2021/12/19 00:56:17;;;;;;;9.05;5.35;;;;;;;6.14;100.00;102498.56;6204607;22;20130;-83
2021/12/19 00:58:45;;;;;;;7.50;5.70;;;;;;;6.14;100.00;102498.56;6229163;22;20024;-84
2021/12/19 01:01:14;;;;;;;7.90;5.53;;;;;;;6.13;100.00;102500.25;6226767;22;20024;-84
2021/12/19 01:03:43;;;;;;;6.97;5.95;;;;;;;6.15;100.00;102502.03;6207119;22;20035;-84
2021/12/19 01:06:11;;;;;;;7.40;5.63;;;;;;;6.13;100.00;102501.97;6231173;22;20031;-84
2021/12/19 01:08:37;;;;;;;6.10;5.18;;;;;;;6.10;100.00;102494.94;6207785;22;20382;-84
2021/12/19 01:11:06;;;;;;;8.30;5.78;;;;;;;6.13;100.00;102505.44;6231944;22;20058;-84
2021/12/19 01:13:32;;;;;;;6.72;5.20;;;;;;;6.12;100.00;102495.88;6205133;22;20841;-84
2021/12/19 01:16:01;;;;;;;6.65;5.10;;;;;;;6.13;100.00;102499.38;6231784;22;20035;-84
2021/12/19 01:18:27;;;;;;;7.35;5.55;;;;;;;6.10;100.00;102479.34;6206260;22;20019;-84
2021/12/19 01:20:55;;;;;;;7.68;4.97;;;;;;;6.11;100.00;102485.41;6232710;22;20460;-84
2021/12/19 01:23:22;;;;;;;9.38;5.25;;;;;;;6.11;100.00;102480.22;6256893;22;20405;-84
2021/12/19 01:25:50;;;;;;;8.05;5.90;;;;;;;6.10;100.00;102481.03;6233480;22;20786;-84
2021/12/19 01:28:17;;;;;;;7.63;5.45;;;;;;;6.09;100.00;102477.56;6233243;22;20027;-84
2021/12/19 01:30:44;;;;;;;9.15;5.43;;;;;;;6.09;100.00;102480.16;6228380;22;20019;-84
2021/12/19 01:33:10;;;;;;;8.45;5.88;;;;;;;6.09;100.00;102477.56;6207457;22;20031;-84
2021/12/19 01:35:37;;;;;;;8.35;5.50;;;;;;;6.09;100.00;102468.88;6229522;22;20055;-84
2021/12/19 01:38:03;;;;;;;10.55;5.57;;;;;;;6.09;100.00;102466.28;6232090;22;20024;-83
2021/12/19 01:40:30;;;;;;;7.50;5.90;;;;;;;6.06;100.00;102459.25;6234246;22;20030;-83
2021/12/19 01:42:59;;;;;;;10.27;5.63;;;;;;;6.08;100.00;102465.38;6230092;22;20344;-83
2021/12/19 01:45:35;;;;;;;6.55;5.18;;;;;;;6.08;100.00;102447.19;6258032;22;20019;-84
2021/12/19 01:48:06;;;;;;;7.45;5.25;;;;;;;6.09;100.00;102448.97;6204739;22;20070;-84
2021/12/19 01:50:34;;;;;;;8.25;6.03;;;;;;;6.07;100.00;102439.31;6232463;22;20570;-84
2021/12/19 01:53:04;;;;;;;8.35;5.88;;;;;;;6.07;100.00;102432.41;6205706;22;20647;-84
2021/12/19 01:55:31;;;;;;;8.52;6.32;;;;;;;6.05;100.00;102433.16;6229171;22;20031;-84
2021/12/19 01:58:01;;;;;;;8.20;5.40;;;;;;;6.03;100.00;102433.13;6206057;22;20564;-84
2021/12/19 02:00:36;;;;;;;7.22;5.20;;;;;;;6.04;100.00;102428.81;6227978;22;20081;-84
2021/12/19 02:03:03;;;;;;;9.23;6.13;;;;;;;6.03;100.00;102424.44;6207420;22;20039;-84
2021/12/19 02:05:30;;;;;;;6.68;5.13;;;;;;;6.02;100.00;102431.34;6230517;22;20058;-84
2021/12/19 02:07:59;;;;;;;10.13;5.47;;;;;;;6.02;100.00;102422.66;6207912;22;20027;-84
2021/12/19 02:10:30;;;;;;;7.68;5.72;;;;;;;6.03;100.00;102429.66;6208331;22;20023;-84
2021/12/19 02:12:58;;;;;;;9.70;5.80;;;;;;;6.05;100.00;102425.38;6204046;22;20503;-84
2021/12/19 02:15:28;;;;;;;8.63;5.40;;;;;;;6.06;100.00;102416.75;6204911;22;20031;-84
2021/12/19 02:18:02;;;;;;;6.15;4.78;;;;;;;6.09;100.00;102412.56;6254769;22;20024;-84
2021/12/19 02:20:38;;;;;;;7.85;5.45;;;;;;;6.09;100.00;102409.09;6231765;22;20020;-85
2021/12/19 02:23:06;;;;;;;5.25;4.72;;;;;;;6.09;100.00;102409.09;6232232;22;20119;-84
2021/12/19 02:25:33;;;;;;;5.78;4.90;;;;;;;6.09;100.00;102398.69;6202023;22;20051;-84
2021/12/19 02:28:03;;;;;;;7.40;5.35;;;;;;;6.08;100.00;102400.38;6230988;22;20345;-84
2021/12/19 02:30:30;;;;;;;6.20;5.28;;;;;;;6.09;100.00;102393.47;6202082;22;20024;-84
2021/12/19 02:32:57;;;;;;;10.00;5.55;;;;;;;6.09;100.00;102393.47;6231486;22;20688;-84
2021/12/19 02:35:28;;;;;;;6.93;4.68;;;;;;;6.08;100.00;102392.56;6232244;22;20073;-84
2021/12/19 02:49:19;;;;;;;10.45;4.35;;;;;;;6.10;100.00;102364.94;6228220;22;20026;-84
2021/12/19 02:51:46;;;;;;;7.13;4.40;;;;;;;6.11;100.00;102368.41;6205874;22;20028;-84
2021/12/19 02:54:13;;;;;;;6.10;3.78;;;;;;;6.12;100.00;102358.06;6232740;22;20503;-84
2021/12/19 02:56:43;;;;;;;5.78;4.00;;;;;;;6.14;100.00;102358.13;6204317;22;20027;-84
2021/12/19 02:59:09;;;;;;;6.75;5.40;;;;;;;6.16;100.00;102353.88;6231671;22;20039;-84
2021/12/19 03:01:36;;;;;;;10.40;4.35;;;;;;;6.17;100.00;102353.03;6252268;22;20050;-84
2021/12/19 03:04:06;;;;;;;9.63;4.40;;;;;;;6.17;100.00;102346.97;6228934;22;20019;-84
2021/12/19 03:06:33;;;;;;;6.25;4.75;;;;;;;6.19;100.00;102348.78;6206806;22;20070;-84
2021/12/19 03:09:05;;;;;;;10.40;4.53;;;;;;;6.16;100.00;102348.66;6227329;22;20058;-84
2021/12/19 03:12:05;;;;;;;7.35;4.85;;;;;;;6.20;100.00;102349.66;6206337;22;20085;-84
2021/12/19 03:20:02;;;;;;;7.72;5.07;;;;;;;6.21;100.00;102341.91;6209842;22;20022;-84
2021/12/19 03:22:29;;;;;;;6.45;4.20;;;;;;;6.19;100.00;102333.19;6233786;22;20106;-84
2021/12/19 03:24:55;;;;;;;6.85;5.30;;;;;;;6.20;100.00;102342.75;6235432;22;20101;-84
2021/12/19 03:27:22;;;;;;;7.60;4.93;;;;;;;6.22;100.00;102338.50;6206844;22;20020;-84
2021/12/19 03:29:49;;;;;;;10.63;4.82;;;;;;;6.21;100.00;102328.91;6234869;22;20024;-84
2021/12/19 03:32:15;;;;;;;9.57;5.85;;;;;;;6.23;100.00;102315.97;6252857;22;20777;-83
2021/12/19 03:34:43;;;;;;;9.82;5.47;;;;;;;6.21;100.00;102313.31;6234054;22;20023;-84
2021/12/19 03:37:12;;;;;;;9.15;4.63;;;;;;;6.23;100.00;102313.34;6207212;22;20023;-84
2021/12/19 03:39:55;;;;;;;5.78;4.13;;;;;;;6.23;100.00;102319.47;6227965;22;20031;-84
2021/12/19 03:42:25;;;;;;;5.93;3.85;;;;;;;6.22;100.00;102317.69;6232194;22;20059;-84
2021/12/19 03:44:52;;;;;;;8.48;4.72;;;;;;;6.24;100.00;102326.41;6206689;22;20027;-84
2021/12/19 03:47:19;;;;;;;8.30;4.30;;;;;;;6.24;100.00;102320.34;6235575;22;20082;-85
2021/12/19 03:49:46;;;;;;;9.02;4.22;;;;;;;6.25;100.00;102324.72;6235784;22;20107;-84
2021/12/19 03:52:14;;;;;;;6.13;5.32;;;;;;;6.27;100.00;102328.22;6255259;22;20074;-84
2021/12/19 03:54:40;;;;;;;8.77;4.85;;;;;;;6.27;100.00;102323.94;6233087;22;20356;-84
2021/12/19 03:57:07;;;;;;;5.55;4.05;;;;;;;6.26;100.00;102327.38;6229714;22;20089;-85
2021/12/19 03:59:33;;;;;;;10.07;4.35;;;;;;;6.29;100.00;102310.97;6234032;22;20028;-84
2021/12/19 04:02:00;;;;;;;5.03;4.45;;;;;;;6.27;100.00;102317.84;6258938;22;20051;-84
2021/12/19 04:04:27;;;;;;;7.05;4.25;;;;;;;6.28;100.00;102310.13;6231468;22;20020;-84
2021/12/19 04:06:54;;;;;;;8.07;4.55;;;;;;;6.28;100.00;102301.41;6233717;22;20454;-84
2021/12/19 04:09:21;;;;;;;9.45;4.05;;;;;;;6.26;100.00;102298.75;6206834;22;20485;-85
2021/12/19 04:11:50;;;;;;;7.65;3.97;;;;;;;6.27;100.00;102290.13;6209443;22;20020;-84
2021/12/19 04:14:16;;;;;;;5.25;4.03;;;;;;;6.29;100.00;102290.19;6233906;22;20019;-84
2021/12/19 04:16:43;;;;;;;6.60;4.20;;;;;;;6.29;100.00;102283.25;6227619;22;20027;-84
2021/12/19 04:19:11;;;;;;;7.75;3.85;;;;;;;6.29;100.00;102280.66;6257959;22;20051;-84
2021/12/19 04:21:37;;;;;;;5.85;4.18;;;;;;;6.28;100.00;102284.09;6229540;22;20027;-83
2021/12/19 04:24:04;;;;;;;7.38;4.85;;;;;;;6.31;100.00;102287.63;6230934;22;20069;-85
2021/12/19 04:26:31;;;;;;;7.28;4.50;;;;;;;6.31;100.00;102282.41;6203775;22;20402;-85
2021/12/19 04:28:57;;;;;;;8.75;4.43;;;;;;;6.32;100.00;102277.28;6231961;22;20539;-84
2021/12/19 04:31:24;;;;;;;5.55;4.15;;;;;;;6.31;100.00;102279.81;6205071;22;20031;-85
2021/12/19 04:33:51;;;;;;;6.50;4.18;;;;;;;6.30;100.00;102273.75;6203819;22;20079;-84
2021/12/19 04:36:25;;;;;;;7.45;3.63;;;;;;;6.30;100.00;102278.94;6231350;22;20092;-84
2021/12/19 04:54:01;;;;;;;7.80;3.50;;;;;;;6.29;100.00;102270.25;5077594;27;1253180;-85
2021/12/19 04:56:39;;;;;;;4.53;3.42;;;;;;;6.29;100.00;102265.03;5080655;27;20058;-85
2021/12/19 04:59:36;;;;;;;3.97;2.65;;;;;;;6.31;100.00;102259.00;5061061;27;20163;-85
2021/12/19 05:02:12;;;;;;;3.58;2.58;;;;;;;6.31;100.00;102251.22;5047851;28;20399;-85
2021/12/19 05:15:37;;;;;;;4.78;3.35;;;;;;;6.32;100.00;102266.88;5029985;28;20124;-85
2021/12/19 05:18:08;;;;;;;9.70;3.58;;;;;;;6.32;100.00;102255.59;5023212;28;20044;-85
2021/12/19 05:20:36;;;;;;;3.67;2.80;;;;;;;6.31;100.00;102249.50;5032138;28;20136;-85
2021/12/19 05:23:10;;;;;;;5.07;3.72;;;;;;;6.31;100.00;102246.00;5022969;28;20432;-85
2021/12/19 05:25:37;;;;;;;;;;;;;;;6.29;100.00;102259.84;5039733;28;20056;-85
2021/12/19 05:28:07;;;;;;;4.95;3.45;;;;;;;6.29;100.00;102253.75;5059969;28;21265;-85
2021/12/19 05:30:33;;;;;;;9.38;3.63;;;;;;;6.29;100.00;102241.63;5025784;28;20045;-84
2021/12/19 05:33:01;;;;;;;5.53;3.70;;;;;;;6.31;100.00;102243.41;5061400;28;20043;-85
2021/12/19 05:35:48;;;;;;;10.55;3.80;;;;;;;6.33;100.00;102244.34;5038973;28;20055;-85
2021/12/19 05:46:59;;;;;;;5.65;4.35;;;;;;;6.27;100.00;102225.13;4983937;28;21070;-85
2021/12/19 05:49:26;;;;;;;4.40;3.90;;;;;;;6.27;100.00;102239.81;5036108;28;20064;-85
2021/12/19 05:51:57;;;;;;;8.65;3.95;;;;;;;6.27;100.00;102232.91;5030095;28;20550;-85
2021/12/19 05:54:23;;;;;;;16.63;5.45;;;;;;;6.26;100.00;102235.47;5043623;28;20059;-85
2021/12/19 05:56:51;;;;;;;13.70;5.22;;;;;;;6.27;100.00;102230.31;5033173;28;20052;-85
2021/12/19 05:59:18;;;;;;;9.32;4.82;;;;;;;6.24;100.00;102230.19;5042075;28;20056;-84
2021/12/19 06:01:46;;;;;;;8.90;4.95;;;;;;;6.23;100.00;102218.03;5027913;28;20106;-83
2021/12/19 06:04:13;;;;;;;11.20;4.97;;;;;;;6.24;100.00;102226.72;5021648;28;20041;-84
2021/12/19 06:06:39;;;;;;;11.05;5.80;;;;;;;6.24;100.00;102221.50;5023418;28;20049;-85
2021/12/19 06:09:06;;;;;;;13.80;5.82;;;;;;;6.24;100.00;102227.59;5012892;28;20049;-85
2021/12/19 06:11:34;;;;;;;9.88;6.30;;;;;;;6.26;100.00;102212.94;5006375;28;20788;-85
2021/12/19 06:14:00;;;;;;;9.27;6.10;;;;;;;6.26;100.00;102215.53;5013204;28;20144;-85
2021/12/19 06:16:27;;;;;;;10.07;6.43;;;;;;;6.26;100.00;102212.06;5009675;28;20249;-85
2021/12/19 06:18:54;;;;;;;14.57;6.60;;;;;;;6.26;100.00;102214.66;5024554;28;20111;-84
2021/12/19 06:21:20;;;;;;;10.00;5.75;;;;;;;6.27;100.00;102219.00;5010318;28;20051;-85
2021/12/19 06:23:47;;;;;;;13.80;7.55;;;;;;;6.28;100.00;102220.78;5038995;28;20136;-85
2021/12/19 06:26:13;;;;;;;16.58;7.30;;;;;;;6.29;100.00;102210.44;5010283;28;20114;-85
2021/12/19 06:28:40;;;;;;;11.18;7.13;;;;;;;6.30;100.00;102213.94;5028643;28;20044;-85
2021/12/19 06:31:08;;;;;;;12.00;7.10;;;;;;;6.31;100.00;102214.81;5002920;28;20233;-85
2021/12/19 06:33:35;;;;;;;13.85;7.20;;;;;;;6.30;100.00;102200.94;5019323;28;20037;-85
2021/12/19 06:36:02;;;;;;;13.60;7.65;;;;;;;6.28;100.00;102197.38;5039944;28;20041;-85
2021/12/19 06:38:28;;;;;;;11.18;7.32;;;;;;;6.29;100.00;102206.94;5013239;28;20053;-85
2021/12/19 06:40:55;;;;;;;13.85;8.50;;;;;;;6.27;100.00;102201.72;5016403;28;20131;-84
2021/12/19 06:43:22;;;;;;;21.92;8.70;;;;;;;6.27;100.00;102212.09;4993290;28;20044;-85
2021/12/19 06:45:48;;;;;;;11.52;7.97;;;;;;;6.27;100.00;102200.81;5016915;28;20071;-85
2021/12/19 06:48:15;;;;;;;11.80;8.18;;;;;;;6.27;100.00;102208.59;5024800;28;20115;-84
2021/12/19 06:50:42;;;;;;;19.92;9.25;;;;;;;6.23;100.00;102196.34;5031321;28;20052;-85
2021/12/19 06:53:08;;;;;;;13.85;8.70;;;;;;;6.22;100.00;102187.66;5049954;28;20045;-85
2021/12/19 06:55:37;;;;;;;19.77;9.40;;;;;;;6.24;100.00;102195.50;5007348;28;20440;-85
2021/12/19 06:58:06;;;;;;;21.42;8.65;;;;;;;6.23;100.00;102185.94;5047651;28;20049;-85
2021/12/19 07:00:34;;;;;;;20.83;8.52;;;;;;;6.19;100.00;102182.38;5024501;28;20049;-85
2021/12/19 07:03:04;;;;;;;17.02;8.30;;;;;;;6.19;100.00;102181.47;5025414;28;20146;-85
2021/12/19 07:05:31;;;;;;;15.55;7.30;;;;;;;6.18;100.00;102188.41;5031559;28;20083;-85
2021/12/19 07:07:58;;;;;;;14.00;7.10;;;;;;;6.13;100.00;102184.75;5010643;28;20059;-85
2021/12/19 07:10:25;;;;;;;16.77;7.30;;;;;;;6.13;100.00;102185.63;5019489;28;20191;-85
2021/12/19 07:12:51;;;;;;;14.52;7.35;;;;;;;6.15;100.00;102183.06;5018390;28;20044;-85
2021/12/19 07:15:18;;;;;;;14.07;7.28;;;;;;;6.15;100.00;102179.59;5041965;28;20090;-85
2021/12/19 07:17:45;;;;;;;12.15;6.97;;;;;;;6.14;100.00;102181.34;5028277;28;20045;-85
2021/12/19 07:20:12;;;;;;;17.17;5.95;;;;;;;6.13;100.00;102167.44;5026238;28;20690;-85
2021/12/19 07:22:38;;;;;;;8.38;5.85;;;;;;;6.12;100.00;102172.59;4991788;28;20052;-85
2021/12/19 07:25:09;;;;;;;12.85;5.80;;;;;;;6.12;100.00;102172.59;5006523;28;20048;-86
2021/12/19 07:27:38;;;;;;;10.98;5.43;;;;;;;6.11;100.00;102171.72;5012621;28;20045;-85
2021/12/19 07:30:07;;;;;;;10.48;4.95;;;;;;;6.11;100.00;102181.22;4993226;28;20068;-85
2021/12/19 07:32:35;;;;;;;8.95;4.88;;;;;;;6.11;100.00;102166.50;5038926;28;20131;-85
2021/12/19 07:35:03;;;;;;;11.45;5.78;;;;;;;6.11;100.00;102166.50;5046978;28;20955;-85
2021/12/19 07:37:30;;;;;;;8.85;4.07;;;;;;;6.14;100.00;102160.53;5027993;28;20446;-84
2021/12/19 07:40:08;;;;;;;8.05;4.20;;;;;;;6.13;100.00;102161.34;5047159;28;20051;-85
2021/12/19 07:42:35;;;;;;;8.20;4.28;;;;;;;6.15;100.00;102158.81;5039461;28;20437;-85
2021/12/19 07:45:02;;;;;;;25.35;6.80;;;;;;;6.11;100.00;102158.72;5047472;28;20049;-84
2021/12/19 07:47:29;;;;;;;12.45;5.00;;;;;;;6.14;100.00;102157.94;5062300;28;20040;-85
2021/12/19 07:49:55;;;;;;;8.95;4.38;;;;;;;6.13;100.00;102149.22;5042851;28;20072;-84
2021/12/19 07:52:22;;;;;;;9.68;3.40;;;;;;;6.14;100.00;102142.31;5029714;28;20049;-84
2021/12/19 07:54:49;;;;;;;11.95;4.05;;;;;;;6.13;100.00;102146.63;5043677;28;20053;-85
2021/12/19 07:57:16;;;;;;;11.57;7.07;;;;;;;6.15;100.00;102146.66;5025913;28;20103;-84
2021/12/19 07:59:42;;;;;;;7.03;4.57;;;;;;;6.15;100.00;102144.06;5030601;28;20048;-84
2021/12/19 08:02:09;;;;;;;7.35;5.43;;;;;;;6.17;100.00;102141.56;5025767;28;20045;-85
2021/12/19 08:04:36;;;;;;;9.90;3.70;;;;;;;6.16;100.00;102151.03;5026788;28;20059;-84
2021/12/19 08:07:02;;;;;;;9.50;4.22;;;;;;;6.18;100.00;102149.41;5027738;28;20049;-85
2021/12/19 08:09:39;;;;;;;6.50;3.90;;;;;;;6.20;100.00;102139.03;5025079;28;20077;-85
2021/12/19 08:12:07;;;;;;;5.43;2.95;;;;;;;6.19;100.00;102143.38;5024405;28;20079;-85
2021/12/19 08:14:35;;;;;;;5.28;3.35;;;;;;;6.18;100.00;102132.88;5039004;28;20411;-85
2021/12/19 08:17:01;;;;;;;3.30;2.88;;;;;;;6.18;100.00;102131.19;5015940;28;20136;-85
2021/12/19 08:19:28;;;;;;;6.50;3.50;;;;;;;6.20;100.00;102128.63;5036446;28;20055;-86
2021/12/19 08:21:56;;;;;;;6.63;3.92;;;;;;;6.20;100.00;102137.31;5045903;28;20045;-85
2021/12/19 08:24:23;;;;;;;8.65;4.38;;;;;;;6.20;100.00;102132.09;5012963;28;20098;-85
2021/12/19 08:26:52;;;;;;;6.72;3.50;;;;;;;6.18;100.00;102130.28;5029251;28;20045;-84
2021/12/19 08:29:19;;;;;;;8.20;4.90;;;;;;;6.16;100.00;102124.19;5028487;28;20049;-85
2021/12/19 08:31:46;;;;;;;8.35;5.15;;;;;;;6.14;100.00;102126.72;5014894;28;20048;-85
2021/12/19 08:34:12;;;;;;;7.57;4.90;;;;;;;6.13;100.00;102132.75;5028388;28;20061;-85
2021/12/19 08:36:39;;;;;;;13.40;6.00;;;;;;;6.13;100.00;102128.44;5020497;28;20466;-84
2021/12/19 08:39:08;;;;;;;6.72;3.90;;;;;;;6.15;100.00;102127.59;5049699;28;20412;-84
2021/12/19 08:41:35;;;;;;;5.60;3.60;;;;;;;6.16;100.00;102117.25;5046371;28;20056;-85
2021/12/19 08:44:01;;;;;;;8.23;3.70;;;;;;;6.19;100.00;102111.25;5034154;28;20521;-85
2021/12/19 08:46:31;;;;;;;9.95;4.97;;;;;;;6.22;100.00;102113.94;5026215;28;20395;-85
2021/12/19 08:48:58;;;;;;;10.95;3.70;;;;;;;6.21;100.00;102126.09;5022361;28;20049;-85
2021/12/19 08:51:27;;;;;;;8.55;4.03;;;;;;;6.22;100.00;102119.16;5037537;28;20076;-85
2021/12/19 08:53:54;;;;;;;12.23;4.07;;;;;;;6.25;100.00;102119.28;5032469;28;20056;-85
2021/12/19 08:56:21;;;;;;;6.55;3.17;;;;;;;6.23;100.00;102128.72;5033060;28;20095;-85
2021/12/19 08:58:48;;;;;;;7.15;3.78;;;;;;;6.22;100.00;102113.94;5020742;28;20057;-85
2021/12/19 09:01:14;;;;;;;10.25;3.83;;;;;;;6.21;100.00;102120.00;5023713;28;20493;-85
2021/12/19 09:03:41;;;;;;;8.93;4.20;;;;;;;6.18;100.00;102112.09;5000882;28;21896;-84
2021/12/19 09:06:07;;;;;;;6.45;3.72;;;;;;;6.16;100.00;102118.97;5032021;28;20049;-85
2021/12/19 09:08:34;;;;;;;9.65;4.20;;;;;;;6.14;100.00;102111.13;5025457;28;20150;-84
2021/12/19 09:11:01;;;;;;;7.80;3.42;;;;;;;6.18;100.00;102123.38;5008142;28;20061;-85
2021/12/19 09:13:28;;;;;;;7.97;3.72;;;;;;;6.19;100.00;102117.38;5013963;28;20045;-84
2021/12/19 09:15:54;;;;;;;3.53;2.53;;;;;;;6.17;100.00;102113.81;5009112;28;20048;-85
2021/12/19 09:18:22;;;;;;;5.05;3.33;;;;;;;6.18;100.00;102120.78;5026820;28;20517;-84
2021/12/19 09:20:50;;;;;;;4.70;2.65;;;;;;;6.17;100.00;102120.75;5030962;28;20569;-85
2021/12/19 09:23:18;;;;;;;7.15;3.00;;;;;;;6.21;100.00;102115.69;5039507;28;20913;-85
2021/12/19 09:25:45;;;;;;;9.60;3.80;;;;;;;6.26;100.00;102118.44;5028504;28;20733;-85
2021/12/19 09:28:12;;;;;;;7.30;2.30;;;;;;;6.26;100.00;102115.84;5028023;28;20057;-85
2021/12/19 09:30:39;;;;;;;7.80;2.75;;;;;;;6.25;100.00;102119.28;5048662;28;22022;-85
2021/12/19 09:33:06;;;;;;;7.50;3.53;;;;;;;6.18;100.00;102106.88;5050304;28;20091;-85
2021/12/19 09:35:34;;;;;;;6.63;4.45;;;;;;;6.16;100.00;102114.66;5013774;28;20088;-85
2021/12/19 09:38:04;;;;;;;6.72;3.25;;;;;;;6.19;100.00;102116.47;5041197;28;20585;-85
2021/12/19 09:40:36;;;;;;;6.28;3.05;;;;;;;6.17;100.00;102113.81;5034623;28;20049;-85
2021/12/19 09:43:10;;;;;;;8.23;3.88;;;;;;;6.15;100.00;102112.88;5034672;28;20038;-85
2021/12/19 09:45:38;;;;;;;11.55;3.42;;;;;;;6.15;100.00;102114.59;5036736;28;20507;-85
2021/12/19 09:48:05;;;;;;;11.52;3.63;;;;;;;6.15;100.00;102099.88;5016025;28;20154;-85
2021/12/19 09:50:32;;;;;;;11.40;3.17;;;;;;;6.11;100.00;102098.91;5017223;28;20053;-85
2021/12/19 09:52:59;;;;;;;8.70;4.53;;;;;;;6.07;100.00;102096.16;5038704;28;20139;-85
2021/12/19 09:55:26;;;;;;;16.10;4.20;;;;;;;6.06;100.00;102100.47;5048864;28;20040;-85
2021/12/19 09:57:54;;;;;;;7.65;4.25;;;;;;;6.05;100.00;102085.69;5065169;28;21105;-85
2021/12/19 10:00:22;;;;;;;5.80;3.80;;;;;;;6.05;100.00;102092.59;5023636;28;20470;-85
2021/12/19 10:02:50;;;;;;;5.15;3.38;;;;;;;6.03;100.00;102087.34;5045706;28;20464;-85
2021/12/19 10:05:27;;;;;;;8.98;4.63;;;;;;;6.03;100.00;102089.09;5033415;28;20052;-85
2021/12/19 10:07:58;;;;;;;7.95;3.42;;;;;;;6.01;100.00;102083.84;5051047;28;20082;-85
2021/12/19 10:10:53;;;;;;;7.60;2.58;;;;;;;6.02;100.00;102088.19;5068159;28;20829;-85
2021/12/19 10:13:39;;;;;;;5.95;3.47;;;;;;;6.03;100.00;102079.56;5026491;28;20044;-84
2021/12/19 10:16:29;;;;;;;4.85;2.60;;;;;;;6.05;100.00;102077.91;5058996;28;20045;-84
2021/12/19 10:19:04;;;;;;;11.10;3.30;;;;;;;6.05;100.00;102082.19;5058856;28;20040;-84
2021/12/19 10:21:36;;;;;;;4.53;2.70;;;;;;;6.03;100.00;102071.75;5045996;28;20495;-85
2021/12/19 10:24:03;;;;;;;3.75;3.03;;;;;;;6.00;100.00;102065.56;5039365;28;20080;-85
2021/12/19 10:26:47;;;;;;;4.72;2.78;;;;;;;5.97;100.00;102063.72;5037166;28;20053;-85
2021/12/19 10:29:14;;;;;;;3.60;2.75;;;;;;;5.96;100.00;102059.38;5036653;28;20052;-85
2021/12/19 10:31:40;;;;;;;3.05;2.40;;;;;;;5.95;100.00;102058.47;5036613;28;20086;-86
2021/12/19 10:34:27;;;;;;;4.30;2.35;;;;;;;5.95;100.00;102048.06;5044157;28;20037;-85
2021/12/19 10:36:54;;;;;;;4.32;2.40;;;;;;;5.96;100.00;102044.66;5038946;28;20052;-84
2021/12/19 10:39:23;;;;;;;5.38;2.85;;;;;;;5.99;100.00;102043.03;5026559;28;20044;-85
2021/12/19 10:42:04;;;;;;;4.65;3.80;;;;;;;6.00;100.00;102043.06;5047596;28;20091;-85
2021/12/19 10:47:34;;;;;;;6.18;2.67;;;;;;;6.03;100.00;102035.38;5040518;28;20428;-85
2021/12/19 10:50:00;;;;;;;4.47;2.20;;;;;;;6.08;100.00;102045.91;5043960;28;20059;-85
2021/12/19 10:52:38;;;;;;;4.55;2.15;;;;;;;6.05;100.00;102028.50;5024786;28;20075;-85
2021/12/19 10:55:11;;;;;;;4.38;2.75;;;;;;;6.07;100.00;102033.75;5008788;28;20094;-85
2021/12/19 10:57:42;;;;;;;7.67;2.87;;;;;;;6.07;100.00;102026.81;5015028;28;20052;-85
2021/12/19 11:00:23;;;;;;;7.80;2.65;;;;;;;6.09;100.00;102026.91;5027985;28;20044;-85
2021/12/19 11:02:50;;;;;;;5.18;2.45;;;;;;;6.05;100.00;102018.13;5036187;28;20392;-86
2021/12/19 11:05:39;;;;;;;4.40;2.35;;;;;;;6.02;100.00;102015.41;5046522;28;20814;-85
2021/12/19 11:08:09;;;;;;;6.88;2.70;;;;;;;6.00;100.00;102011.88;5025036;28;20216;-85
2021/12/19 11:10:40;;;;;;;8.85;2.45;;;;;;;6.00;100.00;102008.38;5013799;28;20497;-85
2021/12/19 11:13:14;;;;;;;5.47;2.63;;;;;;;6.01;100.00;102010.16;5011357;28;20517;-85
2021/12/19 11:15:41;;;;;;;5.18;2.30;;;;;;;5.99;100.00;101997.13;5036944;28;20045;-84
2021/12/19 11:18:09;;;;;;;2.10;2.00;;;;;;;5.99;100.00;101998.84;5022862;28;20045;-85
2021/12/19 11:20:36;;;;;;;6.25;2.72;;;;;;;5.99;100.00;101989.31;5036171;28;20041;-85
2021/12/19 11:23:04;;;;;;;3.60;1.75;;;;;;;6.03;100.00;101987.69;5021030;28;20068;-85
2021/12/19 11:25:31;;;;;;;7.70;1.30;;;;;;;6.09;100.00;101980.97;5019582;28;20048;-84
2021/12/19 11:27:58;;;;;;;4.95;1.58;;;;;;;6.14;100.00;101975.94;5030548;28;20051;-84
2021/12/19 11:30:27;;;;;;;5.93;1.85;;;;;;;6.19;100.00;101968.25;5044342;28;20080;-85
2021/12/19 11:33:24;;;;;;;3.22;2.13;;;;;;;6.19;100.00;101963.03;5020213;28;20147;-85
2021/12/19 11:35:56;;;;;;;4.65;1.80;;;;;;;6.18;100.00;101966.47;5043661;28;20504;-85
2021/12/19 11:38:24;;;;;;;5.50;2.13;;;;;;;6.19;100.00;101958.75;5007403;28;20049;-85
2021/12/19 11:40:52;;;;;;;9.75;2.13;;;;;;;6.19;100.00;101963.94;5022822;28;20053;-85
2021/12/19 11:43:19;;;;;;;8.90;2.83;;;;;;;6.17;100.00;101962.13;5025444;28;20057;-85
2021/12/19 11:45:53;;;;;;;5.15;2.58;;;;;;;6.16;100.00;101952.56;5020426;28;20525;-85
2021/12/19 11:48:27;;;;;;;6.38;2.53;;;;;;;6.14;100.00;101960.31;5044526;28;20084;-85
2021/12/19 11:50:59;;;;;;;5.97;2.58;;;;;;;6.11;100.00;101952.41;5039683;28;20059;-85
2021/12/19 11:53:30;;;;;;;3.80;2.40;;;;;;;6.09;100.00;101967.09;5022732;28;21279;-84
2021/12/19 11:56:10;;;;;;;8.07;2.25;;;;;;;6.07;100.00;101969.63;5038060;28;20482;-85
2021/12/19 11:58:50;;;;;;;3.78;1.90;;;;;;;6.07;100.00;101942.75;5036204;28;20052;-84
2021/12/19 12:01:33;;;;;;;4.95;3.00;;;;;;;6.05;100.00;101944.41;5009585;28;20049;-84
2021/12/19 12:04:03;;;;;;;3.42;2.42;;;;;;;6.00;100.00;101931.31;5003134;28;20060;-85
2021/12/19 12:06:40;;;;;;;3.30;2.30;;;;;;;5.98;100.00;101940.75;5009813;28;20052;-84
2021/12/19 12:09:23;;;;;;;3.92;2.50;;;;;;;5.97;100.00;101931.16;5009984;28;20051;-85
2021/12/19 12:12:02;;;;;;;3.25;2.33;;;;;;;6.02;100.00;101924.41;5025774;28;20052;-85
2021/12/19 12:14:38;;;;;;;6.72;2.50;;;;;;;6.04;100.00;101911.50;5023714;28;20127;-84
2021/12/19 12:17:19;;;;;;;4.47;2.08;;;;;;;6.05;100.00;101901.13;5011080;28;20044;-85
2021/12/19 12:19:55;;;;;;;4.10;2.50;;;;;;;6.05;100.00;101895.03;5012726;28;20045;-85
2021/12/19 12:22:35;;;;;;;8.32;2.25;;;;;;;6.03;100.00;101900.19;5022248;28;20506;-84
2021/12/19 12:25:19;;;;;;;8.18;2.53;;;;;;;6.03;100.00;101901.91;5024870;28;20103;-84
2021/12/19 12:27:55;;;;;;;6.18;2.92;;;;;;;6.03;100.00;101889.78;5004547;28;20053;-84
2021/12/19 12:30:36;;;;;;;8.75;3.55;;;;;;;6.05;100.00;101879.44;5006888;28;20412;-84
2021/12/19 12:33:14;;;;;;;5.45;2.53;;;;;;;6.04;100.00;101868.16;5019958;28;20053;-83